Time;durP1;ratioP1;P1;durP2;ratioP2;P2;SDS_P1;SDS_P2;PMS_P1;PMS_P2;Temp;Humidity;BMP_temperature;BMP_pressure;BME280_temperature;BME280_humidity;BME280_pressure;Samples;Min_cycle;Max_cycle;Signal;HPM_P1;HPM_P2
2022/09/07 00:00:09;;;;;;;37.05;24.83;;;;;;;18.68;100.00;101214.44;4967434;28;20038;-69
2022/09/07 00:02:35;;;;;;;30.85;21.75;;;;;;;18.66;100.00;101202.88;4978444;28;20038;-69
2022/09/07 00:05:00;;;;;;;34.30;22.85;;;;;;;18.62;100.00;101223.03;4970337;28;20081;-69
2022/09/07 00:07:25;;;;;;;33.97;22.42;;;;;;;18.75;100.00;101226.38;4967205;28;20139;-69
2022/09/07 00:09:51;;;;;;;35.10;23.33;;;;;;;18.72;100.00;101242.00;4967023;28;20042;-69
2022/09/07 00:12:16;;;;;;;31.58;20.90;;;;;;;18.60;100.00;101234.00;4968283;28;20038;-69
2022/09/07 00:14:42;;;;;;;27.52;17.63;;;;;;;18.66;100.00;101210.97;4968111;28;20038;-69
2022/09/07 00:17:07;;;;;;;28.40;18.30;;;;;;;18.61;100.00;101197.88;4967709;28;20049;-69
2022/09/07 00:19:33;;;;;;;29.60;18.75;;;;;;;18.54;100.00;101198.59;4969481;28;20046;-68
2022/09/07 00:21:58;;;;;;;40.35;20.73;;;;;;;18.59;100.00;101205.28;4968045;28;20038;-68
2022/09/07 00:24:23;;;;;;;27.92;20.30;;;;;;;18.60;100.00;101208.84;4967426;28;20083;-68
2022/09/07 00:26:49;;;;;;;29.55;18.58;;;;;;;18.68;100.00;101198.22;4968623;28;20377;-69
2022/09/07 00:29:14;;;;;;;33.53;20.60;;;;;;;18.54;100.00;101196.75;4968026;28;20038;-68
2022/09/07 00:31:40;;;;;;;31.13;20.92;;;;;;;18.63;100.00;101205.88;4968649;28;20034;-68
2022/09/07 00:34:06;;;;;;;34.30;22.27;;;;;;;18.57;100.00;101206.41;4967962;28;20826;-68
2022/09/07 00:36:31;;;;;;;38.10;23.88;;;;;;;18.45;100.00;101204.84;4959428;28;20140;-68
2022/09/07 00:38:57;;;;;;;35.08;22.90;;;;;;;18.42;100.00;101199.69;4950151;28;20046;-68
2022/09/07 00:41:23;;;;;;;37.55;23.35;;;;;;;18.25;100.00;101193.97;4967783;28;20081;-69
2022/09/07 00:43:57;;;;;;;37.35;23.08;;;;;;;18.10;100.00;101181.88;4962618;28;20038;-69
2022/09/07 00:46:30;;;;;;;35.47;21.67;;;;;;;17.83;100.00;101169.00;4967540;28;20042;-70
2022/09/07 00:48:59;;;;;;;39.33;24.52;;;;;;;17.77;100.00;101166.81;4966586;28;20160;-69
2022/09/07 00:51:41;;;;;;;53.22;26.55;;;;;;;17.72;100.00;101167.22;4968264;28;20038;-70
2022/09/07 00:54:14;;;;;;;47.13;27.08;;;;;;;17.66;100.00;101161.50;4967760;28;20054;-68
2022/09/07 00:56:42;;;;;;;52.70;28.98;;;;;;;17.54;100.00;101150.81;4969164;28;20070;-69
2022/09/07 00:59:09;;;;;;;53.90;30.40;;;;;;;17.99;100.00;101157.69;4970249;28;20046;-69
2022/09/07 01:01:35;;;;;;;52.90;31.95;;;;;;;17.95;100.00;101150.84;4970537;28;20042;-69
2022/09/07 01:04:02;;;;;;;58.40;31.65;;;;;;;17.86;100.00;101144.44;4972764;28;20763;-69
2022/09/07 01:06:31;;;;;;;54.80;33.63;;;;;;;17.89;100.00;101148.72;4969607;28;20251;-69
2022/09/07 01:09:04;;;;;;;61.88;35.15;;;;;;;17.91;100.00;101144.03;4950398;28;20043;-69
2022/09/07 01:11:32;;;;;;;65.97;33.97;;;;;;;17.80;100.00;101148.53;4946222;28;20556;-69
2022/09/07 01:13:58;;;;;;;69.50;36.53;;;;;;;17.98;100.00;101151.44;4952494;28;20109;-69
2022/09/07 01:16:40;;;;;;;70.45;38.55;;;;;;;18.02;100.00;101149.31;4952421;28;20352;-70
2022/09/07 01:19:24;;;;;;;78.88;38.17;;;;;;;17.97;100.00;101148.88;4950400;28;20038;-69
2022/09/07 01:21:58;;;;;;;74.00;38.85;;;;;;;17.94;100.00;101151.84;4970913;28;20050;-69
2022/09/07 01:24:26;;;;;;;69.85;37.70;;;;;;;17.95;100.00;101156.25;4957464;28;20057;-69
2022/09/07 01:27:21;;;;;;;69.53;36.65;;;;;;;17.97;100.00;101168.63;4969342;28;20053;-69
2022/09/07 01:30:05;;;;;;;68.15;37.38;;;;;;;17.97;100.00;101165.94;4958957;28;20668;-69
2022/09/07 01:32:56;;;;;;;67.93;36.30;;;;;;;17.92;100.00;101178.09;4969806;28;20042;-69
2022/09/07 01:35:46;;;;;;;65.07;38.45;;;;;;;17.99;100.00;101181.97;4969263;28;20459;-70
2022/09/07 01:38:35;;;;;;;67.35;37.83;;;;;;;17.96;100.00;101184.94;4958624;28;20153;-71
2022/09/07 01:41:06;;;;;;;66.00;35.92;;;;;;;18.00;100.00;101186.38;4974140;28;20042;-70
2022/09/07 01:43:53;;;;;;;63.13;35.78;;;;;;;17.92;100.00;101178.94;4953510;28;20168;-71
2022/09/07 01:46:27;;;;;;;62.92;34.97;;;;;;;17.84;100.00;101178.81;4969857;28;20479;-70
2022/09/07 01:48:59;;;;;;;54.42;31.70;;;;;;;17.84;100.00;101186.91;4961677;28;20149;-70
2022/09/07 01:51:30;;;;;;;49.53;26.17;;;;;;;17.80;100.00;101191.69;4968499;28;20038;-69
2022/09/07 01:54:01;;;;;;;52.45;30.67;;;;;;;17.73;100.00;101178.91;4966682;28;20049;-70
2022/09/07 01:56:35;;;;;;;56.33;27.92;;;;;;;17.84;100.00;101181.50;4967273;28;20040;-69
2022/09/07 01:59:07;;;;;;;48.80;26.27;;;;;;;17.68;100.00;101168.47;4969958;28;20046;-70
2022/09/07 02:01:40;;;;;;;44.13;24.92;;;;;;;17.71;100.00;101160.09;4969454;28;20031;-69
2022/09/07 02:04:14;;;;;;;46.58;26.13;;;;;;;17.79;100.00;101157.63;4968441;28;20848;-70
2022/09/07 02:07:03;;;;;;;46.35;24.50;;;;;;;17.93;100.00;101160.94;4935634;28;20094;-70
2022/09/07 02:09:37;;;;;;;35.08;22.20;;;;;;;17.95;100.00;101154.41;4969257;28;20030;-70
2022/09/07 02:12:09;;;;;;;31.63;19.45;;;;;;;17.93;100.00;101155.56;4969406;28;20577;-69
2022/09/07 02:14:43;;;;;;;38.50;22.88;;;;;;;17.74;100.00;101149.09;4969730;28;20038;-69
2022/09/07 02:17:34;;;;;;;37.42;21.35;;;;;;;17.85;100.00;101150.81;4951066;28;20125;-69
2022/09/07 02:20:08;;;;;;;36.28;20.92;;;;;;;17.99;100.00;101146.91;4963938;28;20101;-70
2022/09/07 02:22:38;;;;;;;41.85;21.88;;;;;;;18.07;100.00;101147.03;4969327;28;20057;-70
2022/09/07 02:25:06;;;;;;;39.28;20.83;;;;;;;18.03;100.00;101153.72;4964508;28;20038;-70
2022/09/07 02:27:40;;;;;;;34.72;19.95;;;;;;;18.09;100.00;101145.94;4969790;28;20043;-70
2022/09/07 02:30:06;;;;;;;35.58;20.48;;;;;;;18.16;100.00;101140.81;4952086;28;20053;-69
2022/09/07 02:32:31;;;;;;;34.58;19.42;;;;;;;18.19;100.00;101137.00;4970029;28;20057;-70
2022/09/07 02:34:57;;;;;;;34.40;19.92;;;;;;;18.08;100.00;101133.44;4969326;28;20145;-70
2022/09/07 02:37:26;;;;;;;40.03;20.55;;;;;;;17.99;100.00;101125.31;4950543;28;20168;-70
2022/09/07 02:39:51;;;;;;;35.58;20.00;;;;;;;18.08;100.00;101135.28;4968737;28;20042;-69
2022/09/07 02:42:17;;;;;;;30.70;20.67;;;;;;;18.15;100.00;101139.13;4968490;28;20548;-69
2022/09/07 02:44:45;;;;;;;33.42;20.48;;;;;;;18.23;100.00;101133.88;4969962;28;20050;-69
2022/09/07 02:47:22;;;;;;;29.75;19.27;;;;;;;18.03;100.00;101121.34;4964175;28;20042;-70
2022/09/07 02:50:09;;;;;;;34.88;21.00;;;;;;;17.94;100.00;101124.88;4969508;28;20598;-69
2022/09/07 02:52:59;;;;;;;32.20;19.33;;;;;;;18.03;100.00;101126.75;4967041;28;20100;-69
2022/09/07 02:55:39;;;;;;;36.53;19.38;;;;;;;18.04;100.00;101114.94;4957112;28;20038;-70
2022/09/07 02:58:25;;;;;;;31.83;20.13;;;;;;;18.08;100.00;101124.50;4968306;28;20084;-69
2022/09/07 03:01:29;;;;;;;32.67;19.70;;;;;;;18.04;100.00;101113.09;4950638;28;20050;-69
2022/09/07 03:03:59;;;;;;;28.92;17.02;;;;;;;17.83;100.00;101117.75;4956238;28;20062;-70
2022/09/07 03:06:41;;;;;;;25.73;17.70;;;;;;;18.14;100.00;101123.06;4967830;28;20058;-69
2022/09/07 03:09:10;;;;;;;;;;;;;;;17.93;100.00;101128.56;4967044;28;20249;-69
2022/09/07 03:11:36;;;;;;;27.23;17.70;;;;;;;17.96;100.00;101125.56;4968930;28;19928;-69
2022/09/07 03:14:20;;;;;;;28.67;16.52;;;;;;;17.98;100.00;101121.75;4966917;28;20038;-69
2022/09/07 03:16:48;;;;;;;24.80;15.57;;;;;;;17.98;100.00;101124.47;4969543;28;20026;-71
2022/09/07 03:19:14;;;;;;;25.75;16.17;;;;;;;17.97;100.00;101121.88;4949406;28;20430;-70
2022/09/07 03:21:39;;;;;;;26.95;17.08;;;;;;;17.99;100.00;101115.38;4968047;28;21004;-70
2022/09/07 03:24:05;;;;;;;26.48;15.55;;;;;;;17.88;100.00;101112.78;4966726;28;20486;-69
2022/09/07 03:26:31;;;;;;;25.05;15.45;;;;;;;17.92;100.00;101108.78;4949472;28;20034;-70
2022/09/07 03:28:56;;;;;;;24.27;15.73;;;;;;;17.84;100.00;101105.97;4966165;28;20164;-70
2022/09/07 03:31:22;;;;;;;23.80;16.02;;;;;;;17.85;100.00;101103.13;4948422;28;20230;-70
2022/09/07 03:33:47;;;;;;;27.60;16.42;;;;;;;17.82;100.00;101099.81;4966469;28;20042;-71
2022/09/07 03:36:13;;;;;;;26.00;16.15;;;;;;;17.80;100.00;101094.56;4948475;28;20076;-70
2022/09/07 03:38:38;;;;;;;30.75;16.58;;;;;;;17.83;100.00;101098.84;4966728;28;20042;-69
2022/09/07 03:41:06;;;;;;;28.42;16.42;;;;;;;17.87;100.00;101097.56;4932710;28;20053;-69
2022/09/07 03:43:32;;;;;;;29.45;17.85;;;;;;;17.82;100.00;101099.81;4966749;28;20038;-69
2022/09/07 03:46:00;;;;;;;25.75;16.42;;;;;;;17.93;100.00;101093.50;4966189;28;20060;-69
2022/09/07 03:48:29;;;;;;;26.48;16.83;;;;;;;17.87;100.00;101089.47;4966455;28;20106;-69
2022/09/07 03:51:00;;;;;;;32.38;19.40;;;;;;;17.91;100.00;101093.59;4966085;28;20149;-70
2022/09/07 03:53:26;;;;;;;36.75;20.95;;;;;;;18.01;100.00;101099.88;4936057;28;20050;-70
2022/09/07 03:56:12;;;;;;;44.97;23.60;;;;;;;18.06;100.00;101099.47;4948215;28;20053;-70
2022/09/07 03:58:37;;;;;;;41.70;24.60;;;;;;;18.03;100.00;101100.59;4976686;28;20080;-70
2022/09/07 04:01:09;;;;;;;45.67;25.77;;;;;;;18.08;100.00;101105.59;4967864;28;20038;-70
2022/09/07 04:03:34;;;;;;;52.50;29.00;;;;;;;17.96;100.00;101104.84;4953108;28;20046;-70
2022/09/07 04:06:01;;;;;;;46.85;27.80;;;;;;;18.01;100.00;101102.56;4936844;28;20085;-70
2022/09/07 04:08:29;;;;;;;43.30;27.05;;;;;;;18.02;100.00;101107.00;4962849;28;20045;-70
2022/09/07 04:10:56;;;;;;;52.20;30.88;;;;;;;18.02;100.00;101087.22;4964599;28;20042;-70
2022/09/07 04:13:22;;;;;;;49.85;30.08;;;;;;;18.01;100.00;101094.47;4948186;28;20096;-70
2022/09/07 04:15:47;;;;;;;61.65;32.38;;;;;;;17.89;100.00;101089.34;4949265;28;20642;-70
2022/09/07 04:18:13;;;;;;;58.15;31.98;;;;;;;17.93;100.00;101096.19;4965936;28;20046;-70
2022/09/07 04:20:38;;;;;;;58.28;33.72;;;;;;;17.85;100.00;101083.38;4966902;28;20030;-69
2022/09/07 04:23:04;;;;;;;63.47;34.90;;;;;;;17.89;100.00;101071.31;4965666;28;20042;-69
2022/09/07 04:25:29;;;;;;;62.78;34.40;;;;;;;17.84;100.00;101077.13;4965476;28;20526;-69
2022/09/07 04:27:55;;;;;;;61.33;36.03;;;;;;;17.82;100.00;101075.53;4966295;28;20038;-69
2022/09/07 04:30:21;;;;;;;65.45;35.08;;;;;;;17.88;100.00;101080.41;4966083;28;20113;-72
2022/09/07 04:32:46;;;;;;;59.95;34.05;;;;;;;17.79;100.00;101076.69;4969415;28;20705;-69
2022/09/07 04:35:12;;;;;;;61.55;33.47;;;;;;;17.75;100.00;101091.44;4974878;28;20056;-71
2022/09/07 04:37:38;;;;;;;63.72;35.42;;;;;;;17.73;100.00;101092.59;4969217;28;20030;-69
2022/09/07 04:40:04;;;;;;;56.28;33.05;;;;;;;17.73;100.00;101095.28;4934811;28;20420;-69
2022/09/07 04:42:30;;;;;;;57.33;33.47;;;;;;;17.74;100.00;101088.88;4967408;28;20877;-70
2022/09/07 04:44:55;;;;;;;57.83;32.45;;;;;;;17.77;100.00;101083.19;4975346;28;20034;-69
2022/09/07 04:47:21;;;;;;;54.67;32.72;;;;;;;17.64;100.00;101090.66;4966317;28;20034;-69
2022/09/07 04:49:52;;;;;;;54.38;30.95;;;;;;;17.72;100.00;101096.22;4978191;28;20034;-68
2022/09/07 04:52:17;;;;;;;52.10;30.60;;;;;;;17.68;100.00;101097.50;4956025;28;20042;-69
2022/09/07 04:54:43;;;;;;;52.75;31.67;;;;;;;17.65;100.00;101095.91;4974766;28;20874;-69
2022/09/07 04:57:10;;;;;;;51.55;30.90;;;;;;;17.67;100.00;101091.25;4973720;28;20500;-70
2022/09/07 04:59:35;;;;;;;55.30;30.20;;;;;;;17.77;100.00;101086.78;4957757;28;20092;-70
2022/09/07 05:02:01;;;;;;;55.75;30.83;;;;;;;17.76;100.00;101087.75;4954441;28;20046;-70
2022/09/07 05:04:26;;;;;;;48.00;27.75;;;;;;;17.81;100.00;101082.78;4967574;28;20271;-69
2022/09/07 05:06:53;;;;;;;44.85;29.75;;;;;;;17.68;100.00;101086.72;4972626;28;20042;-70
2022/09/07 05:09:18;;;;;;;47.42;28.05;;;;;;;17.65;100.00;101085.13;4971294;28;20042;-70
2022/09/07 05:11:44;;;;;;;50.97;29.27;;;;;;;17.64;100.00;101087.97;4970526;28;20061;-69
2022/09/07 05:14:10;;;;;;;47.10;29.10;;;;;;;17.66;100.00;101083.28;4970965;28;20061;-70
2022/09/07 05:16:35;;;;;;;47.38;28.05;;;;;;;17.63;100.00;101097.06;4953617;28;20264;-70
2022/09/07 05:19:03;;;;;;;60.55;28.10;;;;;;;17.64;100.00;101090.66;4971635;28;20740;-69
2022/09/07 05:21:33;;;;;;;43.47;26.73;;;;;;;17.59;100.00;101100.03;4955396;28;20038;-69
2022/09/07 05:24:00;;;;;;;55.40;27.35;;;;;;;17.73;100.00;101109.63;4971831;28;20100;-70
2022/09/07 05:26:28;;;;;;;47.17;28.80;;;;;;;17.64;100.00;101105.00;4971271;28;20651;-70
2022/09/07 05:28:54;;;;;;;42.05;26.65;;;;;;;17.67;100.00;101111.94;4954090;28;20590;-70
2022/09/07 05:31:21;;;;;;;49.83;29.85;;;;;;;17.65;100.00;101117.50;4969769;28;20073;-71
2022/09/07 05:33:52;;;;;;;43.13;28.42;;;;;;;17.69;100.00;101104.59;4967325;28;20054;-70
2022/09/07 05:36:19;;;;;;;41.25;26.80;;;;;;;17.75;100.00;101114.88;4970189;28;20133;-69
2022/09/07 05:38:45;;;;;;;52.33;27.85;;;;;;;17.77;100.00;101119.16;4952639;28;20045;-72
2022/09/07 05:41:19;;;;;;;46.35;27.77;;;;;;;17.80;100.00;101123.41;4953068;28;20845;-70
2022/09/07 05:43:46;;;;;;;43.95;26.75;;;;;;;17.83;100.00;101124.00;4969749;28;20038;-70
2022/09/07 05:46:13;;;;;;;41.47;27.08;;;;;;;17.85;100.00;101121.16;4970383;28;20065;-69
2022/09/07 05:48:39;;;;;;;49.10;26.75;;;;;;;17.94;100.00;101124.88;4953595;28;20033;-70
2022/09/07 05:51:05;;;;;;;43.28;26.48;;;;;;;17.86;100.00;101120.16;4970500;28;20046;-70
2022/09/07 05:53:33;;;;;;;43.80;26.38;;;;;;;17.89;100.00;101132.53;4954890;28;20088;-69
2022/09/07 05:56:00;;;;;;;43.92;26.45;;;;;;;17.88;100.00;101133.53;4972024;28;20030;-69
2022/09/07 05:58:27;;;;;;;41.55;26.50;;;;;;;18.01;100.00;101134.97;4954439;28;20022;-69
2022/09/07 06:01:00;;;;;;;41.53;25.75;;;;;;;18.10;100.00;101128.75;4969997;28;20121;-70
2022/09/07 06:03:26;;;;;;;37.00;24.33;;;;;;;18.10;100.00;101128.75;4953728;28;20042;-70
2022/09/07 06:06:03;;;;;;;42.17;27.27;;;;;;;18.11;100.00;101116.09;4971798;28;20039;-70
2022/09/07 06:08:31;;;;;;;37.00;24.50;;;;;;;18.15;100.00;101113.97;4970587;28;20154;-70
2022/09/07 06:10:56;;;;;;;38.40;24.33;;;;;;;18.28;100.00;101119.97;4971728;28;20703;-70
2022/09/07 06:13:22;;;;;;;37.65;24.95;;;;;;;18.25;100.00;101117.53;4970005;28;21452;-70
2022/09/07 06:15:47;;;;;;;37.65;24.95;;;;;;;18.37;100.00;101119.09;4952635;28;20144;-71
2022/09/07 06:18:13;;;;;;;40.53;24.67;;;;;;;18.42;100.00;101124.94;4964885;28;20057;-70
2022/09/07 06:20:38;;;;;;;40.85;23.83;;;;;;;18.53;100.00;101135.63;4969157;28;20049;-70
2022/09/07 06:23:06;;;;;;;36.80;23.88;;;;;;;18.52;100.00;101136.59;4946572;28;20049;-70
2022/09/07 06:25:32;;;;;;;35.35;23.20;;;;;;;18.59;100.00;101135.06;4967099;28;20039;-69
2022/09/07 06:27:58;;;;;;;36.72;23.58;;;;;;;18.48;100.00;101139.75;4960865;28;20037;-70
2022/09/07 06:30:24;;;;;;;39.58;22.85;;;;;;;18.63;100.00;101130.22;4962031;28;20165;-70
2022/09/07 06:32:50;;;;;;;33.70;22.23;;;;;;;18.78;100.00;101134.22;4956675;28;20080;-70
2022/09/07 06:35:15;;;;;;;27.70;20.65;;;;;;;19.04;100.00;101129.06;4954490;28;20462;-70
2022/09/07 06:37:41;;;;;;;40.50;22.90;;;;;;;19.15;100.00;101122.66;4950223;28;20823;-70
2022/09/07 06:40:09;;;;;;;37.13;23.02;;;;;;;19.24;100.00;101129.88;4929012;28;20075;-70
2022/09/07 06:42:34;;;;;;;35.20;22.98;;;;;;;19.29;100.00;101133.00;4956244;28;20034;-70
2022/09/07 06:45:01;;;;;;;35.88;23.20;;;;;;;19.70;100.00;101124.63;4936227;28;20037;-71
2022/09/07 06:47:27;;;;;;;31.52;21.25;;;;;;;19.71;100.00;101124.47;4959367;28;20050;-70
2022/09/07 06:49:52;;;;;;;32.83;23.23;;;;;;;20.02;100.00;101122.31;4950791;28;20113;-70
2022/09/07 06:52:18;;;;;;;38.17;20.85;;;;;;;19.89;100.00;101135.38;4962474;28;20085;-70
2022/09/07 06:54:44;;;;;;;34.25;20.85;;;;;;;19.66;100.00;101130.31;4946339;28;20347;-71
2022/09/07 06:57:10;;;;;;;31.33;21.05;;;;;;;19.51;100.00;101139.06;4951545;28;20900;-70
2022/09/07 06:59:36;;;;;;;30.95;20.25;;;;;;;19.50;100.00;101135.50;4969487;28;20045;-70
2022/09/07 07:02:03;;;;;;;30.88;19.60;;;;;;;19.80;100.00;101129.00;4951922;28;20152;-71
2022/09/07 07:04:28;;;;;;;32.03;21.25;;;;;;;19.99;100.00;101135.31;4955897;28;20057;-71
2022/09/07 07:06:54;;;;;;;32.03;21.42;;;;;;;20.63;100.00;101137.00;4971370;28;20034;-68
2022/09/07 07:09:19;;;;;;;34.65;20.13;;;;;;;20.69;100.00;101139.97;4959903;28;20034;-69
2022/09/07 07:11:46;;;;;;;30.88;20.27;;;;;;;20.61;100.00;101139.03;4947912;28;20034;-71
2022/09/07 07:14:15;;;;;;;27.75;19.98;;;;;;;20.56;100.00;101139.50;4947636;28;20042;-71
2022/09/07 07:16:40;;;;;;;30.10;19.73;;;;;;;21.15;100.00;101142.53;4965888;28;20048;-71
2022/09/07 07:19:06;;;;;;;30.38;20.95;;;;;;;20.39;100.00;101145.75;4964674;28;20042;-70
2022/09/07 07:21:31;;;;;;;31.52;21.80;;;;;;;20.10;100.00;101156.75;4966244;28;20038;-70
2022/09/07 07:23:57;;;;;;;41.35;22.55;;;;;;;20.23;100.00;101148.25;4947277;28;20045;-71
2022/09/07 07:26:26;;;;;;;35.67;21.80;;;;;;;20.13;100.00;101149.19;4947247;28;20960;-70
2022/09/07 07:28:54;;;;;;;29.80;21.13;;;;;;;19.94;100.00;101153.88;4961360;28;20038;-71
2022/09/07 07:31:23;;;;;;;37.40;21.90;;;;;;;20.03;100.00;101152.94;4943354;28;20402;-69
2022/09/07 07:33:51;;;;;;;32.10;22.15;;;;;;;19.97;100.00;101150.84;4956536;28;20049;-71
2022/09/07 07:36:19;;;;;;;32.60;21.02;;;;;;;20.47;100.00;101162.09;4941108;28;20058;-71
2022/09/07 07:38:47;;;;;;;31.02;21.60;;;;;;;20.68;100.00;101156.38;4967747;28;20120;-71
2022/09/07 07:41:14;;;;;;;32.30;21.70;;;;;;;20.24;100.00;101153.53;4963570;28;20118;-70
2022/09/07 07:43:39;;;;;;;34.53;22.77;;;;;;;20.38;100.00;101154.84;4965443;28;20034;-71
2022/09/07 07:46:05;;;;;;;33.83;22.13;;;;;;;20.06;100.00;101158.06;4933892;28;20116;-70
2022/09/07 07:48:33;;;;;;;34.13;21.70;;;;;;;19.94;100.00;101172.81;4947040;28;20035;-70
2022/09/07 07:51:07;;;;;;;36.55;22.02;;;;;;;20.07;100.00;101178.72;4964240;28;20139;-69
2022/09/07 07:53:34;;;;;;;32.83;21.27;;;;;;;20.14;100.00;101175.25;4942361;28;20049;-70
2022/09/07 07:56:01;;;;;;;36.97;22.27;;;;;;;20.22;100.00;101181.75;4958050;28;20034;-71
2022/09/07 07:58:27;;;;;;;30.10;21.65;;;;;;;20.14;100.00;101179.84;4959269;28;20046;-70
2022/09/07 08:00:53;;;;;;;33.40;22.80;;;;;;;20.39;100.00;101172.84;4961851;28;20038;-71
2022/09/07 08:03:20;;;;;;;30.67;20.50;;;;;;;20.20;100.00;101170.25;4962152;28;20086;-70
2022/09/07 08:05:46;;;;;;;29.85;21.85;;;;;;;20.70;100.00;101170.63;4960385;28;20049;-70
2022/09/07 08:08:12;;;;;;;33.33;21.02;;;;;;;21.16;100.00;101168.66;4948103;28;20034;-70
2022/09/07 08:10:37;;;;;;;32.50;20.90;;;;;;;21.68;100.00;101163.22;4963537;28;20030;-72
2022/09/07 08:13:03;;;;;;;31.10;21.75;;;;;;;21.34;100.00;101174.06;4962656;28;20474;-71
2022/09/07 08:15:29;;;;;;;34.75;20.42;;;;;;;22.22;100.00;101172.00;4964707;28;20342;-71
2022/09/07 08:17:56;;;;;;;29.27;19.73;;;;;;;22.04;100.00;101180.22;4955390;28;20125;-71
2022/09/07 08:20:22;;;;;;;29.88;20.63;;;;;;;21.32;100.00;101184.22;4965747;28;20041;-72
2022/09/07 08:22:50;;;;;;;28.02;19.40;;;;;;;21.01;100.00;101190.06;4962636;28;20145;-71
2022/09/07 08:25:16;;;;;;;30.02;20.88;;;;;;;21.25;100.00;101192.13;4960039;28;20677;-71
2022/09/07 08:27:42;;;;;;;27.98;19.98;;;;;;;21.08;100.00;101195.69;4941745;28;20936;-70
2022/09/07 08:30:09;;;;;;;33.17;21.27;;;;;;;20.66;100.00;101204.47;4944840;28;20137;-70
2022/09/07 08:32:35;;;;;;;31.45;20.05;;;;;;;21.08;100.00;101207.38;4962202;28;20038;-71
2022/09/07 08:35:01;;;;;;;31.98;21.52;;;;;;;21.80;100.00;101208.13;4943908;28;20077;-71
2022/09/07 08:37:28;;;;;;;33.30;21.88;;;;;;;22.14;100.00;101202.72;4962510;28;20042;-71
2022/09/07 08:39:53;;;;;;;30.40;20.85;;;;;;;21.65;100.00;101213.28;4934125;28;20085;-70
2022/09/07 08:42:44;;;;;;;30.88;21.17;;;;;;;21.58;100.00;101201.34;4945578;28;20323;-71
2022/09/07 08:45:26;;;;;;;34.95;20.80;;;;;;;21.68;100.00;101207.50;4954095;28;20042;-71
2022/09/07 08:47:51;;;;;;;29.08;20.63;;;;;;;21.72;100.00;101208.06;4955006;28;20033;-70
2022/09/07 08:50:32;;;;;;;33.97;20.75;;;;;;;22.46;100.00;101209.25;4955908;28;20030;-71
2022/09/07 08:53:19;;;;;;;28.00;20.45;;;;;;;21.81;100.00;101209.81;4958666;28;20030;-71
2022/09/07 08:55:50;;;;;;;31.13;20.42;;;;;;;21.75;100.00;101207.75;4956767;28;20045;-68
2022/09/07 08:58:48;;;;;;;28.80;19.80;;;;;;;21.88;100.00;101201.84;4942926;28;20038;-70
2022/09/07 09:01:15;;;;;;;29.40;19.55;;;;;;;21.71;100.00;101207.22;4955032;28;20042;-70
2022/09/07 09:03:41;;;;;;;29.33;20.23;;;;;;;21.87;100.00;101201.00;4942592;28;20038;-70
2022/09/07 09:06:40;;;;;;;31.50;19.60;;;;;;;21.86;100.00;101202.03;4955655;28;20038;-69
2022/09/07 09:09:44;;;;;;;33.38;20.48;;;;;;;22.78;100.00;101205.75;4954146;28;20142;-70
2022/09/07 09:12:41;;;;;;;25.63;18.25;;;;;;;22.74;99.04;101215.25;4942861;28;20085;-70
2022/09/07 09:15:20;;;;;;;28.55;19.08;;;;;;;22.77;99.38;101222.25;4940691;28;20093;-70
2022/09/07 09:17:58;;;;;;;27.02;18.23;;;;;;;22.23;97.81;101217.16;4963118;28;20038;-69
2022/09/07 09:20:40;;;;;;;27.98;18.80;;;;;;;22.59;95.13;101217.81;4947310;28;20150;-69
2022/09/07 09:23:11;;;;;;;27.73;18.98;;;;;;;22.47;98.19;101219.97;4964258;28;20113;-69
2022/09/07 09:25:41;;;;;;;26.35;18.02;;;;;;;22.56;97.83;101222.72;4965830;28;20038;-70
2022/09/07 09:28:11;;;;;;;31.10;20.55;;;;;;;22.64;96.96;101225.44;4959971;28;20101;-70
2022/09/07 09:30:37;;;;;;;25.85;19.15;;;;;;;22.74;97.34;101226.13;4947057;28;20145;-70
2022/09/07 09:33:17;;;;;;;33.20;22.60;;;;;;;22.27;99.38;101232.13;4964090;28;20449;-69
2022/09/07 09:35:44;;;;;;;31.58;22.00;;;;;;;22.08;100.00;101226.91;4948024;28;20038;-70
2022/09/07 09:38:29;;;;;;;34.13;20.92;;;;;;;22.86;95.70;101234.84;4964686;28;20407;-70
2022/09/07 09:41:01;;;;;;;30.27;20.67;;;;;;;23.32;95.26;101240.69;4936727;28;20661;-69
2022/09/07 09:43:53;;;;;;;33.45;20.73;;;;;;;23.65;93.66;101228.75;4964315;28;20038;-69
2022/09/07 09:46:28;;;;;;;31.40;21.15;;;;;;;24.28;91.60;101227.00;4938049;28;20058;-69
2022/09/07 09:48:57;;;;;;;28.45;19.88;;;;;;;24.64;91.04;101229.25;4962674;28;20494;-69
2022/09/07 09:51:30;;;;;;;30.50;20.25;;;;;;;23.61;94.00;101232.81;4965812;28;20206;-69
2022/09/07 09:53:55;;;;;;;29.50;21.50;;;;;;;23.22;94.54;101224.50;4960598;28;21059;-70
2022/09/07 09:56:34;;;;;;;25.63;20.83;;;;;;;22.84;97.12;101226.84;4963273;28;20069;-69
2022/09/07 09:59:16;;;;;;;31.98;21.75;;;;;;;23.06;96.88;101221.81;4964179;28;20800;-69
2022/09/07 10:01:44;;;;;;;30.52;22.27;;;;;;;23.36;95.75;101221.09;4963259;28;20037;-70
2022/09/07 10:04:30;;;;;;;32.55;21.73;;;;;;;23.40;96.41;101217.03;4964682;28;20133;-70
2022/09/07 10:07:17;;;;;;;29.75;19.92;;;;;;;23.97;92.93;101211.47;4964106;28;20045;-67
2022/09/07 10:09:48;;;;;;;34.38;20.92;;;;;;;24.13;91.07;101199.66;4947991;28;20056;-69
2022/09/07 10:12:35;;;;;;;28.42;20.05;;;;;;;24.59;87.77;101199.78;4965654;28;20049;-70
2022/09/07 10:15:04;;;;;;;29.17;18.73;;;;;;;24.86;88.07;101197.56;4944450;28;20045;-69
2022/09/07 10:17:37;;;;;;;22.17;17.60;;;;;;;24.72;87.50;101199.19;4946731;28;20030;-69
2022/09/07 10:20:14;;;;;;;26.08;18.35;;;;;;;24.50;85.72;101200.88;4942355;28;20050;-69
2022/09/07 10:22:41;;;;;;;30.35;19.20;;;;;;;24.24;87.42;101190.22;4958068;28;20151;-69
2022/09/07 10:25:26;;;;;;;25.42;16.27;;;;;;;24.22;82.46;101192.28;4963335;28;20042;-71
2022/09/07 10:28:13;;;;;;;25.45;18.08;;;;;;;24.62;82.62;101188.53;4960941;28;20038;-71
2022/09/07 10:31:17;;;;;;;23.58;16.55;;;;;;;24.26;87.86;101193.66;4947142;28;20070;-70
2022/09/07 10:33:48;;;;;;;27.50;18.50;;;;;;;24.68;84.03;101190.53;4964112;28;20053;-69
2022/09/07 10:36:42;;;;;;;24.67;17.95;;;;;;;25.01;82.33;101184.84;4935271;28;20052;-68
2022/09/07 10:39:16;;;;;;;21.50;15.18;;;;;;;24.43;81.40;101191.69;4962281;28;20037;-69
2022/09/07 10:42:02;;;;;;;22.10;14.43;;;;;;;24.64;83.29;101194.63;4964018;28;20125;-68
2022/09/07 10:44:47;;;;;;;21.48;15.93;;;;;;;25.48;81.63;101186.47;4961572;28;20066;-72
2022/09/07 10:47:36;;;;;;;19.20;14.65;;;;;;;25.07;79.86;101186.84;4946748;28;20038;-71
2022/09/07 10:50:18;;;;;;;17.45;13.30;;;;;;;25.84;77.25;101186.59;4945928;28;20042;-68
2022/09/07 10:53:02;;;;;;;18.75;13.73;;;;;;;25.60;78.42;101179.50;4946149;28;20046;-70
2022/09/07 10:55:37;;;;;;;19.58;13.48;;;;;;;25.76;77.49;101184.84;4946836;28;20103;-73
2022/09/07 10:58:44;;;;;;;20.42;14.13;;;;;;;25.89;73.38;101180.56;4960473;28;20042;-69
2022/09/07 11:01:34;;;;;;;18.50;14.07;;;;;;;25.51;77.36;101181.47;4924906;28;20055;-69
2022/09/07 11:04:36;;;;;;;17.85;13.07;;;;;;;25.93;71.88;101177.28;4957888;28;20073;-71
2022/09/07 11:07:31;;;;;;;17.05;12.85;;;;;;;25.65;76.61;101176.19;4962558;28;20039;-69
2022/09/07 11:10:09;;;;;;;17.98;13.23;;;;;;;25.85;75.83;101179.25;4916616;28;20054;-69
2022/09/07 11:12:38;;;;;;;16.50;11.68;;;;;;;25.24;76.88;101174.72;4963265;28;20040;-69
2022/09/07 11:17:46;;;;;;;17.50;11.80;;;;;;;25.52;76.06;101182.34;4982076;22;20081;-72
2022/09/07 11:20:30;;;;;;;16.17;12.48;;;;;;;25.31;74.50;101185.78;4985050;28;20095;-73
2022/09/07 11:23:51;;;;;;;18.77;12.52;;;;;;;25.08;76.62;101185.81;4986309;28;20042;-73
2022/09/07 11:26:27;;;;;;;16.38;13.05;;;;;;;24.89;78.43;101183.53;4875073;29;20052;-73